sensor_id;sensor_type;location;lat;lon;timestamp;pressure;altitude;pressure_sealevel;temperature;humidity
21644;BME280;10983;51.982;9.226;2023-04-08T00:00:38;65387.91;;;-139.23;100.00
21644;BME280;10983;51.982;9.226;2023-04-08T00:03:07;65387.91;;;-139.23;100.00
21644;BME280;10983;51.982;9.226;2023-04-08T00:05:35;65387.91;;;-139.23;100.00
21644;BME280;10983;51.982;9.226;2023-04-08T00:08:02;65387.91;;;-139.23;100.00
21644;BME280;10983;51.982;9.226;2023-04-08T00:10:29;65387.91;;;-139.23;100.00
21644;BME280;10983;51.982;9.226;2023-04-08T00:12:57;65387.91;;;-139.23;100.00
21644;BME280;10983;51.982;9.226;2023-04-08T00:15:26;65387.91;;;-139.23;100.00
21644;BME280;10983;51.982;9.226;2023-04-08T00:17:53;65387.91;;;-139.23;100.00
21644;BME280;10983;51.982;9.226;2023-04-08T00:20:23;65387.91;;;-139.23;100.00
21644;BME280;10983;51.982;9.226;2023-04-08T00:22:50;65387.91;;;-139.23;100.00
21644;BME280;10983;51.982;9.226;2023-04-08T00:25:18;65387.91;;;-139.23;100.00
21644;BME280;10983;51.982;9.226;2023-04-08T00:27:47;65387.91;;;-139.23;100.00
21644;BME280;10983;51.982;9.226;2023-04-08T00:30:15;65387.91;;;-139.23;100.00
21644;BME280;10983;51.982;9.226;2023-04-08T00:32:42;65387.91;;;-139.23;100.00
21644;BME280;10983;51.982;9.226;2023-04-08T00:35:10;65387.91;;;-139.23;100.00
21644;BME280;10983;51.982;9.226;2023-04-08T00:37:39;65387.91;;;-139.23;100.00
21644;BME280;10983;51.982;9.226;2023-04-08T00:40:07;65387.91;;;-139.23;100.00
21644;BME280;10983;51.982;9.226;2023-04-08T00:42:36;65387.91;;;-139.23;100.00
21644;BME280;10983;51.982;9.226;2023-04-08T00:45:05;65387.91;;;-139.23;100.00
21644;BME280;10983;51.982;9.226;2023-04-08T00:47:34;65387.91;;;-139.23;100.00
21644;BME280;10983;51.982;9.226;2023-04-08T00:50:02;65387.91;;;-139.23;100.00
21644;BME280;10983;51.982;9.226;2023-04-08T00:52:30;65387.91;;;-139.23;100.00
21644;BME280;10983;51.982;9.226;2023-04-08T00:54:58;65387.91;;;-139.23;100.00
21644;BME280;10983;51.982;9.226;2023-04-08T00:57:27;65387.91;;;-139.23;100.00
21644;BME280;10983;51.982;9.226;2023-04-08T00:59:57;65387.91;;;-139.23;100.00
21644;BME280;10983;51.982;9.226;2023-04-08T01:02:44;65387.91;;;-139.23;100.00
21644;BME280;10983;51.982;9.226;2023-04-08T01:05:50;65387.91;;;-139.23;100.00
21644;BME280;10983;51.982;9.226;2023-04-08T01:08:25;65387.91;;;-139.23;100.00
21644;BME280;10983;51.982;9.226;2023-04-08T01:10:58;65387.91;;;-139.23;100.00
21644;BME280;10983;51.982;9.226;2023-04-08T01:13:29;65387.91;;;-139.23;100.00
21644;BME280;10983;51.982;9.226;2023-04-08T01:15:57;65387.91;;;-139.23;100.00
21644;BME280;10983;51.982;9.226;2023-04-08T01:18:28;65387.91;;;-139.23;100.00
21644;BME280;10983;51.982;9.226;2023-04-08T01:20:57;65387.91;;;-139.23;100.00
21644;BME280;10983;51.982;9.226;2023-04-08T01:23:34;65387.91;;;-139.23;100.00
21644;BME280;10983;51.982;9.226;2023-04-08T01:26:04;65387.91;;;-139.23;100.00
21644;BME280;10983;51.982;9.226;2023-04-08T01:28:32;65387.91;;;-139.23;100.00
21644;BME280;10983;51.982;9.226;2023-04-08T01:31:02;65387.91;;;-139.23;100.00
21644;BME280;10983;51.982;9.226;2023-04-08T01:33:30;65387.91;;;-139.23;100.00
21644;BME280;10983;51.982;9.226;2023-04-08T01:35:58;65387.91;;;-139.23;100.00
21644;BME280;10983;51.982;9.226;2023-04-08T01:38:27;65387.91;;;-139.23;100.00
21644;BME280;10983;51.982;9.226;2023-04-08T01:40:56;65387.91;;;-139.23;100.00
21644;BME280;10983;51.982;9.226;2023-04-08T01:43:25;65387.91;;;-139.23;100.00
21644;BME280;10983;51.982;9.226;2023-04-08T01:45:54;65387.91;;;-139.23;100.00
21644;BME280;10983;51.982;9.226;2023-04-08T01:48:24;65387.91;;;-139.23;100.00
21644;BME280;10983;51.982;9.226;2023-04-08T01:50:52;65387.91;;;-139.23;100.00
21644;BME280;10983;51.982;9.226;2023-04-08T01:53:21;65387.91;;;-139.23;100.00
21644;BME280;10983;51.982;9.226;2023-04-08T01:55:56;65387.91;;;-139.23;100.00
21644;BME280;10983;51.982;9.226;2023-04-08T01:58:30;65387.91;;;-139.23;100.00
21644;BME280;10983;51.982;9.226;2023-04-08T02:01:00;65387.91;;;-139.23;100.00
21644;BME280;10983;51.982;9.226;2023-04-08T02:03:30;65387.91;;;-139.23;100.00
21644;BME280;10983;51.982;9.226;2023-04-08T02:05:58;65387.91;;;-139.23;100.00
21644;BME280;10983;51.982;9.226;2023-04-08T02:08:26;65387.91;;;-139.23;100.00
21644;BME280;10983;51.982;9.226;2023-04-08T02:10:53;65387.91;;;-139.23;100.00
21644;BME280;10983;51.982;9.226;2023-04-08T02:13:22;65387.91;;;-139.23;100.00
21644;BME280;10983;51.982;9.226;2023-04-08T02:15:56;65387.91;;;-139.23;100.00
21644;BME280;10983;51.982;9.226;2023-04-08T02:18:25;65387.91;;;-139.23;100.00
21644;BME280;10983;51.982;9.226;2023-04-08T02:20:58;65387.91;;;-139.23;100.00
21644;BME280;10983;51.982;9.226;2023-04-08T02:23:28;65387.91;;;-139.23;100.00
21644;BME280;10983;51.982;9.226;2023-04-08T02:25:55;65387.91;;;-139.23;100.00
21644;BME280;10983;51.982;9.226;2023-04-08T02:28:25;65387.91;;;-139.23;100.00
21644;BME280;10983;51.982;9.226;2023-04-08T02:30:56;65387.91;;;-139.23;100.00
21644;BME280;10983;51.982;9.226;2023-04-08T02:33:26;65387.91;;;-139.23;100.00
21644;BME280;10983;51.982;9.226;2023-04-08T02:35:56;65387.91;;;-139.23;100.00
21644;BME280;10983;51.982;9.226;2023-04-08T02:38:23;65387.91;;;-139.23;100.00
21644;BME280;10983;51.982;9.226;2023-04-08T02:40:55;65387.91;;;-139.23;100.00
21644;BME280;10983;51.982;9.226;2023-04-08T02:43:22;65387.91;;;-139.23;100.00
21644;BME280;10983;51.982;9.226;2023-04-08T02:45:56;65387.91;;;-139.23;100.00
21644;BME280;10983;51.982;9.226;2023-04-08T02:48:24;65387.91;;;-139.23;100.00
21644;BME280;10983;51.982;9.226;2023-04-08T02:50:52;65387.91;;;-139.23;100.00
21644;BME280;10983;51.982;9.226;2023-04-08T02:53:19;65387.91;;;-139.23;100.00
21644;BME280;10983;51.982;9.226;2023-04-08T02:55:47;65387.91;;;-139.23;100.00
21644;BME280;10983;51.982;9.226;2023-04-08T02:58:14;65387.91;;;-139.23;100.00
21644;BME280;10983;51.982;9.226;2023-04-08T03:00:41;65387.91;;;-139.23;100.00
21644;BME280;10983;51.982;9.226;2023-04-08T03:03:10;65387.91;;;-139.23;100.00
21644;BME280;10983;51.982;9.226;2023-04-08T03:05:38;65387.91;;;-139.23;100.00
21644;BME280;10983;51.982;9.226;2023-04-08T03:08:06;65387.91;;;-139.23;100.00
21644;BME280;10983;51.982;9.226;2023-04-08T03:10:33;65387.91;;;-139.23;100.00
21644;BME280;10983;51.982;9.226;2023-04-08T03:13:00;65387.91;;;-139.23;100.00
21644;BME280;10983;51.982;9.226;2023-04-08T03:15:28;65387.91;;;-139.23;100.00
21644;BME280;10983;51.982;9.226;2023-04-08T03:17:55;65387.91;;;-139.23;100.00
21644;BME280;10983;51.982;9.226;2023-04-08T03:20:24;65387.91;;;-139.23;100.00
21644;BME280;10983;51.982;9.226;2023-04-08T03:22:52;65387.91;;;-139.23;100.00
21644;BME280;10983;51.982;9.226;2023-04-08T03:25:19;65387.91;;;-139.23;100.00
21644;BME280;10983;51.982;9.226;2023-04-08T03:27:47;65387.91;;;-139.23;100.00
21644;BME280;10983;51.982;9.226;2023-04-08T03:30:15;65387.91;;;-139.23;100.00
21644;BME280;10983;51.982;9.226;2023-04-08T03:32:43;65387.91;;;-139.23;100.00
21644;BME280;10983;51.982;9.226;2023-04-08T03:35:10;65387.91;;;-139.23;100.00
21644;BME280;10983;51.982;9.226;2023-04-08T03:37:39;65387.91;;;-139.23;100.00
21644;BME280;10983;51.982;9.226;2023-04-08T03:40:08;65387.91;;;-139.23;100.00
21644;BME280;10983;51.982;9.226;2023-04-08T03:42:35;65387.91;;;-139.23;100.00
21644;BME280;10983;51.982;9.226;2023-04-08T03:45:04;65387.91;;;-139.23;100.00
21644;BME280;10983;51.982;9.226;2023-04-08T03:47:31;65387.91;;;-139.23;100.00
21644;BME280;10983;51.982;9.226;2023-04-08T03:49:59;65387.91;;;-139.23;100.00
21644;BME280;10983;51.982;9.226;2023-04-08T03:52:26;65387.91;;;-139.23;100.00
21644;BME280;10983;51.982;9.226;2023-04-08T03:54:55;65387.91;;;-139.23;100.00
21644;BME280;10983;51.982;9.226;2023-04-08T03:57:22;65387.91;;;-139.23;100.00
21644;BME280;10983;51.982;9.226;2023-04-08T03:59:49;65387.91;;;-139.23;100.00
21644;BME280;10983;51.982;9.226;2023-04-08T04:02:17;65387.91;;;-139.23;100.00
21644;BME280;10983;51.982;9.226;2023-04-08T04:04:47;65387.91;;;-139.23;100.00
21644;BME280;10983;51.982;9.226;2023-04-08T04:07:14;65387.91;;;-139.23;100.00
21644;BME280;10983;51.982;9.226;2023-04-08T04:09:42;65387.91;;;-139.23;100.00
21644;BME280;10983;51.982;9.226;2023-04-08T04:12:11;65387.91;;;-139.23;100.00
21644;BME280;10983;51.982;9.226;2023-04-08T04:14:38;65387.91;;;-139.23;100.00
21644;BME280;10983;51.982;9.226;2023-04-08T04:17:05;65387.91;;;-139.23;100.00
21644;BME280;10983;51.982;9.226;2023-04-08T04:19:33;65387.91;;;-139.23;100.00
21644;BME280;10983;51.982;9.226;2023-04-08T04:22:00;65387.91;;;-139.23;100.00
21644;BME280;10983;51.982;9.226;2023-04-08T04:24:28;65387.91;;;-139.23;100.00
21644;BME280;10983;51.982;9.226;2023-04-08T04:26:55;65387.91;;;-139.23;100.00
21644;BME280;10983;51.982;9.226;2023-04-08T04:29:24;65387.91;;;-139.23;100.00
21644;BME280;10983;51.982;9.226;2023-04-08T04:31:51;65387.91;;;-139.23;100.00
21644;BME280;10983;51.982;9.226;2023-04-08T04:34:19;65387.91;;;-139.23;100.00
21644;BME280;10983;51.982;9.226;2023-04-08T04:36:49;65387.91;;;-139.23;100.00
21644;BME280;10983;51.982;9.226;2023-04-08T04:39:17;65387.91;;;-139.23;100.00
21644;BME280;10983;51.982;9.226;2023-04-08T04:41:44;65387.91;;;-139.23;100.00
21644;BME280;10983;51.982;9.226;2023-04-08T04:44:13;65387.91;;;-139.23;100.00
21644;BME280;10983;51.982;9.226;2023-04-08T04:46:42;65387.91;;;-139.23;100.00
21644;BME280;10983;51.982;9.226;2023-04-08T04:49:10;65387.91;;;-139.23;100.00
21644;BME280;10983;51.982;9.226;2023-04-08T04:51:37;65387.91;;;-139.23;100.00
21644;BME280;10983;51.982;9.226;2023-04-08T04:54:04;65387.91;;;-139.23;100.00
21644;BME280;10983;51.982;9.226;2023-04-08T04:56:32;65387.91;;;-139.23;100.00
21644;BME280;10983;51.982;9.226;2023-04-08T04:58:59;65387.91;;;-139.23;100.00
21644;BME280;10983;51.982;9.226;2023-04-08T05:01:27;65387.91;;;-139.23;100.00
21644;BME280;10983;51.982;9.226;2023-04-08T05:03:56;65387.91;;;-139.23;100.00
21644;BME280;10983;51.982;9.226;2023-04-08T05:06:24;65387.91;;;-139.23;100.00
21644;BME280;10983;51.982;9.226;2023-04-08T05:08:51;65387.91;;;-139.23;100.00
21644;BME280;10983;51.982;9.226;2023-04-08T05:11:19;65387.91;;;-139.23;100.00
21644;BME280;10983;51.982;9.226;2023-04-08T05:13:47;65387.91;;;-139.23;100.00
21644;BME280;10983;51.982;9.226;2023-04-08T05:16:14;65387.91;;;-139.23;100.00
21644;BME280;10983;51.982;9.226;2023-04-08T05:18:43;65387.91;;;-139.23;100.00
21644;BME280;10983;51.982;9.226;2023-04-08T05:21:12;65387.91;;;-139.23;100.00
21644;BME280;10983;51.982;9.226;2023-04-08T05:23:39;65387.91;;;-139.23;100.00
21644;BME280;10983;51.982;9.226;2023-04-08T05:26:07;65387.91;;;-139.23;100.00
21644;BME280;10983;51.982;9.226;2023-04-08T05:28:34;65387.91;;;-139.23;100.00
21644;BME280;10983;51.982;9.226;2023-04-08T05:31:02;65387.91;;;-139.23;100.00
21644;BME280;10983;51.982;9.226;2023-04-08T05:33:30;65387.91;;;-139.23;100.00
21644;BME280;10983;51.982;9.226;2023-04-08T05:35:57;65387.91;;;-139.23;100.00
21644;BME280;10983;51.982;9.226;2023-04-08T05:38:26;65387.91;;;-139.23;100.00
21644;BME280;10983;51.982;9.226;2023-04-08T05:40:53;65387.91;;;-139.23;100.00
21644;BME280;10983;51.982;9.226;2023-04-08T05:43:21;65387.91;;;-139.23;100.00
21644;BME280;10983;51.982;9.226;2023-04-08T05:45:49;65387.91;;;-139.23;100.00
21644;BME280;10983;51.982;9.226;2023-04-08T05:48:17;65387.91;;;-139.23;100.00
21644;BME280;10983;51.982;9.226;2023-04-08T05:50:44;65387.91;;;-139.23;100.00
21644;BME280;10983;51.982;9.226;2023-04-08T05:53:13;65387.91;;;-139.23;100.00
21644;BME280;10983;51.982;9.226;2023-04-08T05:55:42;65387.91;;;-139.23;100.00
21644;BME280;10983;51.982;9.226;2023-04-08T05:58:09;65387.91;;;-139.23;100.00
21644;BME280;10983;51.982;9.226;2023-04-08T06:00:37;65387.91;;;-139.23;100.00
21644;BME280;10983;51.982;9.226;2023-04-08T06:03:04;65387.91;;;-139.23;100.00
21644;BME280;10983;51.982;9.226;2023-04-08T06:05:32;65387.91;;;-139.23;100.00
21644;BME280;10983;51.982;9.226;2023-04-08T06:07:59;65387.91;;;-139.23;100.00
21644;BME280;10983;51.982;9.226;2023-04-08T06:10:27;65387.91;;;-139.23;100.00
21644;BME280;10983;51.982;9.226;2023-04-08T06:12:56;65387.91;;;-139.23;100.00
21644;BME280;10983;51.982;9.226;2023-04-08T06:15:24;65387.91;;;-139.23;100.00
21644;BME280;10983;51.982;9.226;2023-04-08T06:17:53;65387.91;;;-139.23;100.00
21644;BME280;10983;51.982;9.226;2023-04-08T06:20:20;65387.91;;;-139.23;100.00
21644;BME280;10983;51.982;9.226;2023-04-08T06:22:48;65387.91;;;-139.23;100.00
21644;BME280;10983;51.982;9.226;2023-04-08T06:25:17;65387.91;;;-139.23;100.00
21644;BME280;10983;51.982;9.226;2023-04-08T06:27:45;65387.91;;;-139.23;100.00
21644;BME280;10983;51.982;9.226;2023-04-08T06:30:15;65387.91;;;-139.23;100.00
21644;BME280;10983;51.982;9.226;2023-04-08T06:32:42;65387.91;;;-139.23;100.00
21644;BME280;10983;51.982;9.226;2023-04-08T06:35:13;65387.91;;;-139.23;100.00
21644;BME280;10983;51.982;9.226;2023-04-08T06:37:41;65387.91;;;-139.23;100.00
21644;BME280;10983;51.982;9.226;2023-04-08T06:40:09;65387.91;;;-139.23;100.00
21644;BME280;10983;51.982;9.226;2023-04-08T06:42:36;65387.91;;;-139.23;100.00
21644;BME280;10983;51.982;9.226;2023-04-08T06:45:06;65387.91;;;-139.23;100.00
21644;BME280;10983;51.982;9.226;2023-04-08T06:47:35;65387.91;;;-139.23;100.00
21644;BME280;10983;51.982;9.226;2023-04-08T06:50:03;65387.91;;;-139.23;100.00
21644;BME280;10983;51.982;9.226;2023-04-08T06:52:31;65387.91;;;-139.23;100.00
21644;BME280;10983;51.982;9.226;2023-04-08T06:54:59;65387.91;;;-139.23;100.00
21644;BME280;10983;51.982;9.226;2023-04-08T06:57:26;65387.91;;;-139.23;100.00
21644;BME280;10983;51.982;9.226;2023-04-08T06:59:53;65387.91;;;-139.23;100.00
21644;BME280;10983;51.982;9.226;2023-04-08T07:02:21;65387.91;;;-139.23;100.00
21644;BME280;10983;51.982;9.226;2023-04-08T07:04:51;65387.91;;;-139.23;100.00
21644;BME280;10983;51.982;9.226;2023-04-08T07:07:19;65387.91;;;-139.23;100.00
21644;BME280;10983;51.982;9.226;2023-04-08T07:09:46;65387.91;;;-139.23;100.00
21644;BME280;10983;51.982;9.226;2023-04-08T07:12:14;65387.91;;;-139.23;100.00
21644;BME280;10983;51.982;9.226;2023-04-08T07:14:41;65387.91;;;-139.23;100.00
21644;BME280;10983;51.982;9.226;2023-04-08T07:17:09;65387.91;;;-139.23;100.00
21644;BME280;10983;51.982;9.226;2023-04-08T07:19:36;65387.91;;;-139.23;100.00
21644;BME280;10983;51.982;9.226;2023-04-08T07:22:05;65387.91;;;-139.23;100.00
21644;BME280;10983;51.982;9.226;2023-04-08T07:24:32;65387.91;;;-139.23;100.00
21644;BME280;10983;51.982;9.226;2023-04-08T07:27:00;65387.91;;;-139.23;100.00
21644;BME280;10983;51.982;9.226;2023-04-08T07:29:28;65387.91;;;-139.23;100.00
21644;BME280;10983;51.982;9.226;2023-04-08T07:31:55;65387.91;;;-139.23;100.00
21644;BME280;10983;51.982;9.226;2023-04-08T07:34:23;65387.91;;;-139.23;100.00
21644;BME280;10983;51.982;9.226;2023-04-08T07:36:50;65387.91;;;-139.23;100.00
21644;BME280;10983;51.982;9.226;2023-04-08T07:39:19;65387.91;;;-139.23;100.00
21644;BME280;10983;51.982;9.226;2023-04-08T07:41:46;65387.91;;;-139.23;100.00
21644;BME280;10983;51.982;9.226;2023-04-08T07:44:14;65387.91;;;-139.23;100.00
21644;BME280;10983;51.982;9.226;2023-04-08T07:46:42;65387.91;;;-139.23;100.00
21644;BME280;10983;51.982;9.226;2023-04-08T07:49:10;65387.91;;;-139.23;100.00
21644;BME280;10983;51.982;9.226;2023-04-08T07:51:38;65387.91;;;-139.23;100.00
21644;BME280;10983;51.982;9.226;2023-04-08T07:54:05;65387.91;;;-139.23;100.00
21644;BME280;10983;51.982;9.226;2023-04-08T07:56:34;65387.91;;;-139.23;100.00
21644;BME280;10983;51.982;9.226;2023-04-08T07:59:03;65387.91;;;-139.23;100.00
21644;BME280;10983;51.982;9.226;2023-04-08T08:01:31;65387.91;;;-139.23;100.00
21644;BME280;10983;51.982;9.226;2023-04-08T08:04:00;65387.91;;;-139.23;100.00
21644;BME280;10983;51.982;9.226;2023-04-08T08:06:28;65387.91;;;-139.23;100.00
21644;BME280;10983;51.982;9.226;2023-04-08T08:08:58;65387.91;;;-139.23;100.00
21644;BME280;10983;51.982;9.226;2023-04-08T08:11:26;65387.91;;;-139.23;100.00
21644;BME280;10983;51.982;9.226;2023-04-08T08:13:56;65387.91;;;-139.23;100.00
21644;BME280;10983;51.982;9.226;2023-04-08T08:16:27;65387.91;;;-139.23;100.00
21644;BME280;10983;51.982;9.226;2023-04-08T08:18:54;65387.91;;;-139.23;100.00
21644;BME280;10983;51.982;9.226;2023-04-08T08:21:22;65387.91;;;-139.23;100.00
21644;BME280;10983;51.982;9.226;2023-04-08T08:23:51;65387.91;;;-139.23;100.00
21644;BME280;10983;51.982;9.226;2023-04-08T08:26:18;65387.91;;;-139.23;100.00
21644;BME280;10983;51.982;9.226;2023-04-08T08:28:46;65387.91;;;-139.23;100.00
21644;BME280;10983;51.982;9.226;2023-04-08T08:31:15;65387.91;;;-139.23;100.00
21644;BME280;10983;51.982;9.226;2023-04-08T08:33:42;65387.91;;;-139.23;100.00
21644;BME280;10983;51.982;9.226;2023-04-08T08:36:09;65387.91;;;-139.23;100.00
21644;BME280;10983;51.982;9.226;2023-04-08T08:38:37;65387.91;;;-139.23;100.00
21644;BME280;10983;51.982;9.226;2023-04-08T08:41:08;65387.91;;;-139.23;100.00
21644;BME280;10983;51.982;9.226;2023-04-08T08:43:35;65387.91;;;-139.23;100.00
21644;BME280;10983;51.982;9.226;2023-04-08T08:46:09;65387.91;;;-139.23;100.00
21644;BME280;10983;51.982;9.226;2023-04-08T08:48:39;65387.91;;;-139.23;100.00
21644;BME280;10983;51.982;9.226;2023-04-08T08:51:07;65387.91;;;-139.23;100.00
21644;BME280;10983;51.982;9.226;2023-04-08T08:53:38;65387.91;;;-139.23;100.00
21644;BME280;10983;51.982;9.226;2023-04-08T08:56:10;65387.91;;;-139.23;100.00
21644;BME280;10983;51.982;9.226;2023-04-08T08:58:44;65387.91;;;-139.23;100.00
21644;BME280;10983;51.982;9.226;2023-04-08T09:01:29;65387.91;;;-139.23;100.00
21644;BME280;10983;51.982;9.226;2023-04-08T09:07:09;101019.44;;;10.19;100.00
21644;BME280;10983;51.982;9.226;2023-04-08T09:09:50;101017.19;;;10.16;100.00
21644;BME280;10983;51.982;9.226;2023-04-08T09:12:18;101014.78;;;9.95;100.00
21644;BME280;10983;51.982;9.226;2023-04-08T09:14:46;101013.97;;;10.20;100.00
21644;BME280;10983;51.982;9.226;2023-04-08T09:17:14;101005.09;;;10.59;100.00
21644;BME280;10983;51.982;9.226;2023-04-08T09:20:03;101028.22;;;10.71;100.00
21644;BME280;10983;51.982;9.226;2023-04-08T09:22:53;101021.69;;;10.48;100.00
21644;BME280;10983;51.982;9.226;2023-04-08T09:25:22;101037.19;;;10.76;100.00
21644;BME280;10983;51.982;9.226;2023-04-08T09:27:52;101042.47;;;10.89;100.00
21644;BME280;10983;51.982;9.226;2023-04-08T09:30:21;101061.09;;;10.89;100.00
21644;BME280;10983;51.982;9.226;2023-04-08T09:32:52;101054.91;;;11.08;100.00
21644;BME280;10983;51.982;9.226;2023-04-08T09:35:21;101050.66;;;11.51;100.00
21644;BME280;10983;51.982;9.226;2023-04-08T09:37:50;101062.84;;;11.71;100.00
21644;BME280;10983;51.982;9.226;2023-04-08T09:40:18;101073.53;;;11.71;100.00
21644;BME280;10983;51.982;9.226;2023-04-08T09:42:46;101070.38;;;11.37;100.00
21644;BME280;10983;51.982;9.226;2023-04-08T09:45:17;101080.59;;;11.40;100.00
21644;BME280;10983;51.982;9.226;2023-04-08T09:47:55;101076.47;;;11.57;100.00
21644;BME280;10983;51.982;9.226;2023-04-08T09:50:26;101070.38;;;11.37;100.00
21644;BME280;10983;51.982;9.226;2023-04-08T09:53:07;101068.50;;;10.62;100.00
21644;BME280;10983;51.982;9.226;2023-04-08T09:55:36;101061.16;;;10.06;100.00
21644;BME280;10983;51.982;9.226;2023-04-08T09:58:09;101048.06;;;10.43;100.00
21644;BME280;10983;51.982;9.226;2023-04-08T10:00:39;101038.66;;;10.60;100.00
21644;BME280;10983;51.982;9.226;2023-04-08T10:03:10;101049.63;;;11.02;100.00
21644;BME280;10983;51.982;9.226;2023-04-08T10:05:42;101053.84;;;11.16;100.00
21644;BME280;10983;51.982;9.226;2023-04-08T10:08:11;101056.16;;;10.99;100.00
21644;BME280;10983;51.982;9.226;2023-04-08T10:10:40;101059.53;;;11.25;100.00
21644;BME280;10983;51.982;9.226;2023-04-08T10:13:08;101065.16;;;11.61;100.00
21644;BME280;10983;51.982;9.226;2023-04-08T10:15:36;101073.16;;;11.55;100.00
21644;BME280;10983;51.982;9.226;2023-04-08T10:18:31;101069.50;;;10.86;100.00
21644;BME280;10983;51.982;9.226;2023-04-08T10:20:59;101061.34;;;10.68;100.00
21644;BME280;10983;51.982;9.226;2023-04-08T10:23:59;101061.59;;;10.28;100.00
21644;BME280;10983;51.982;9.226;2023-04-08T10:26:36;101055.03;;;10.31;100.00
21644;BME280;10983;51.982;9.226;2023-04-08T10:29:29;101051.94;;;10.60;100.00
21644;BME280;10983;51.982;9.226;2023-04-08T10:31:57;101059.28;;;10.77;100.00
21644;BME280;10983;51.982;9.226;2023-04-08T10:34:27;101051.94;;;10.66;100.00
21644;BME280;10983;51.982;9.226;2023-04-08T10:36:57;101059.69;;;10.80;100.00
21644;BME280;10983;51.982;9.226;2023-04-08T10:39:29;101063.53;;;11.04;100.00
21644;BME280;10983;51.982;9.226;2023-04-08T10:41:56;101069.72;;;11.41;100.00
21644;BME280;10983;51.982;9.226;2023-04-08T10:44:24;101067.06;;;11.41;100.00
21644;BME280;10983;51.982;9.226;2023-04-08T10:46:53;101069.81;;;11.22;100.00
21644;BME280;10983;51.982;9.226;2023-04-08T10:49:20;101061.38;;;11.31;100.00
21644;BME280;10983;51.982;9.226;2023-04-08T10:51:48;101071.03;;;11.19;100.00
21644;BME280;10983;51.982;9.226;2023-04-08T10:54:16;101060.34;;;10.44;100.00
21644;BME280;10983;51.982;9.226;2023-04-08T10:56:47;101059.66;;;10.87;100.00
21644;BME280;10983;51.982;9.226;2023-04-08T10:59:15;101061.03;;;11.15;100.00
21644;BME280;10983;51.982;9.226;2023-04-08T11:01:45;101064.06;;;11.25;100.00
21644;BME280;10983;51.982;9.226;2023-04-08T11:04:14;101063.00;;;11.39;100.00
21644;BME280;10983;51.982;9.226;2023-04-08T11:06:44;101078.44;;;11.18;100.00
21644;BME280;10983;51.982;9.226;2023-04-08T11:09:13;101067.47;;;11.51;100.00
21644;BME280;10983;51.982;9.226;2023-04-08T11:11:42;101073.75;;;12.00;100.00
21644;BME280;10983;51.982;9.226;2023-04-08T11:14:11;101079.88;;;12.01;100.00
21644;BME280;10983;51.982;9.226;2023-04-08T11:16:39;101069.28;;;12.19;100.00
21644;BME280;10983;51.982;9.226;2023-04-08T11:19:07;101077.38;;;13.39;100.00
21644;BME280;10983;51.982;9.226;2023-04-08T11:21:35;101093.34;;;14.03;100.00
21644;BME280;10983;51.982;9.226;2023-04-08T11:24:06;101112.91;;;14.33;100.00
21644;BME280;10983;51.982;9.226;2023-04-08T11:26:35;101127.78;;;13.82;100.00
21644;BME280;10983;51.982;9.226;2023-04-08T11:29:03;101131.84;;;14.02;100.00
21644;BME280;10983;51.982;9.226;2023-04-08T11:31:33;101137.50;;;14.12;100.00
21644;BME280;10983;51.982;9.226;2023-04-08T11:34:01;101145.59;;;14.06;100.00
21644;BME280;10983;51.982;9.226;2023-04-08T11:36:28;101155.25;;;13.89;100.00
21644;BME280;10983;51.982;9.226;2023-04-08T11:38:56;101149.22;;;13.64;100.00
21644;BME280;10983;51.982;9.226;2023-04-08T11:41:35;101142.56;;;13.38;100.00
21644;BME280;10983;51.982;9.226;2023-04-08T11:44:03;101141.63;;;13.08;100.00
21644;BME280;10983;51.982;9.226;2023-04-08T11:46:33;101130.41;;;13.17;100.00
21644;BME280;10983;51.982;9.226;2023-04-08T11:49:04;101142.41;;;12.90;100.00
21644;BME280;10983;51.982;9.226;2023-04-08T11:51:33;101136.50;;;13.06;100.00
21644;BME280;10983;51.982;9.226;2023-04-08T11:54:03;101140.59;;;12.60;100.00
21644;BME280;10983;51.982;9.226;2023-04-08T11:56:43;101133.13;;;12.44;100.00
21644;BME280;10983;51.982;9.226;2023-04-08T11:59:11;101143.41;;;12.65;100.00
21644;BME280;10983;51.982;9.226;2023-04-08T12:01:40;101142.13;;;12.74;100.00
21644;BME280;10983;51.982;9.226;2023-04-08T12:04:09;101145.22;;;12.47;100.00
21644;BME280;10983;51.982;9.226;2023-04-08T12:06:37;101141.00;;;12.33;100.00
21644;BME280;10983;51.982;9.226;2023-04-08T12:09:08;101150.47;;;12.29;100.00
21644;BME280;10983;51.982;9.226;2023-04-08T12:11:35;101137.47;;;11.71;100.00
21644;BME280;10983;51.982;9.226;2023-04-08T12:14:03;101138.13;;;11.97;100.00
21644;BME280;10983;51.982;9.226;2023-04-08T12:16:31;101145.72;;;12.00;100.00
21644;BME280;10983;51.982;9.226;2023-04-08T12:19:00;101137.28;;;11.66;100.00
21644;BME280;10983;51.982;9.226;2023-04-08T12:21:27;101141.19;;;11.57;100.00
21644;BME280;10983;51.982;9.226;2023-04-08T12:23:54;101133.03;;;11.46;100.00
21644;BME280;10983;51.982;9.226;2023-04-08T12:26:22;101127.06;;;11.44;100.00
21644;BME280;10983;51.982;9.226;2023-04-08T12:28:49;101126.84;;;11.58;100.00
21644;BME280;10983;51.982;9.226;2023-04-08T12:31:17;101120.53;;;11.53;100.00
21644;BME280;10983;51.982;9.226;2023-04-08T12:33:44;101131.84;;;11.29;100.00
21644;BME280;10983;51.982;9.226;2023-04-08T12:36:13;101131.03;;;11.28;100.00
21644;BME280;10983;51.982;9.226;2023-04-08T12:38:40;101127.53;;;11.34;100.00
21644;BME280;10983;51.982;9.226;2023-04-08T12:41:08;101123.84;;;11.29;100.00
21644;BME280;10983;51.982;9.226;2023-04-08T12:43:36;101128.63;;;11.01;100.00
21644;BME280;10983;51.982;9.226;2023-04-08T12:46:04;101117.97;;;11.14;100.00